Time;durP1;ratioP1;P1;durP2;ratioP2;P2;SDS_P1;SDS_P2;PMS_P1;PMS_P2;Temp;Humidity;BMP_temperature;BMP_pressure;BME280_temperature;BME280_humidity;BME280_pressure;Samples;Min_cycle;Max_cycle;Signal;HPM_P1;HPM_P2
2022/08/11 00:00:48;;;;;;;;;;;;;;;;;;5071324;28;19970;-79
2022/08/11 00:03:14;;;;;;;;;;;;;;;;;;5071214;28;19920;-79
2022/08/11 00:05:39;;;;;;;;;;;;;;;;;;5071082;28;19912;-79
2022/08/11 00:08:04;;;;;;;;;;;;;;;;;;5069396;28;19927;-79
2022/08/11 00:10:29;;;;;;;;;;;;;;;;;;5071876;28;19999;-79
2022/08/11 00:12:55;;;;;;;;;;;;;;;;;;5071932;28;20041;-79
2022/08/11 00:15:20;;;;;;;;;;;;;;;;;;5072956;28;19908;-79
2022/08/11 00:17:45;;;;;;;;;;;;;;;;;;5070973;28;19924;-79
2022/08/11 00:20:11;;;;;;;;;;;;;;;;;;5066249;28;19919;-79
2022/08/11 00:22:36;;;;;;;;;;;;;;;;;;5067240;28;19919;-79
2022/08/11 00:25:01;;;;;;;;;;;;;;;;;;5071129;28;19916;-79
2022/08/11 00:27:26;;;;;;;;;;;;;;;;;;5070540;28;19920;-79
2022/08/11 00:29:51;;;;;;;;;;;;;;;;;;5070752;28;19917;-79
2022/08/11 00:32:16;;;;;;;;;;;;;;;;;;5070838;28;21577;-78
2022/08/11 00:34:41;;;;;;;;;;;;;;;;;;5071170;28;19919;-79
2022/08/11 00:37:07;;;;;;;;;;;;;;;;;;5069433;28;19913;-78
2022/08/11 00:39:32;;;;;;;;;;;;;;;;;;5069777;28;19952;-79
2022/08/11 00:41:57;;;;;;;;;;;;;;;;;;5070381;28;19916;-79
2022/08/11 00:44:22;;;;;;;;;;;;;;;;;;5070841;28;19912;-79
2022/08/11 00:46:47;;;;;;;;;;;;;;;;;;5071941;28;19912;-79
2022/08/11 00:49:12;;;;;;;;;;;;;;;;;;5071919;28;19912;-79
2022/08/11 00:51:37;;;;;;;;;;;;;;;;;;5074588;28;19938;-79
2022/08/11 00:54:03;;;;;;;;;;;;;;;;;;5069932;28;20015;-79
2022/08/11 00:56:28;;;;;;;;;;;;;;;;;;5070656;28;19909;-79
2022/08/11 00:58:53;;;;;;;;;;;;;;;;;;5071798;28;19935;-79
2022/08/11 01:01:19;;;;;;;;;;;;;;;;;;5069278;28;20409;-79
2022/08/11 01:03:44;;;;;;;;;;;;;;;;;;5060584;28;19920;-79
2022/08/11 01:06:10;;;;;;;;;;;;;;;;;;5051426;28;19913;-78
2022/08/11 01:08:35;;;;;;;;;;;;;;;;;;5052299;28;19958;-78
2022/08/11 01:11:01;;;;;;;;;;;;;;;;;;5046318;28;20011;-79
2022/08/11 01:13:26;;;;;;;;;;;;;;;;;;5050004;28;19920;-79
2022/08/11 01:15:51;;;;;;;;;;;;;;;;;;5051964;28;20058;-79
2022/08/11 01:18:16;;;;;;;;;;;;;;;;;;5033616;28;19982;-79
2022/08/11 01:20:41;;;;;;;;;;;;;;;;;;5033185;28;19913;-79
2022/08/11 01:23:06;;;;;;;;;;;;;;;;;;5031666;28;20385;-79
2022/08/11 01:25:31;;;;;;;;;;;;;;;;;;5055450;28;20363;-79
2022/08/11 01:27:57;;;;;;;;;;;;;;;;;;5055403;28;19908;-80
2022/08/11 01:30:22;;;;;;;;;;;;;;;;;;5054981;28;19958;-80
2022/08/11 01:32:47;;;;;;;;;;;;;;;;;;5052869;28;19988;-79
2022/08/11 01:35:13;;;;;;;;;;;;;;;;;;5055367;28;19913;-79
2022/08/11 01:37:38;;;;;;;;;;;;;;;;;;5037510;28;19928;-78
2022/08/11 01:40:03;;;;;;;;;;;;;;;;;;5037304;28;19912;-79
2022/08/11 01:45:12;;;;;;;;;;;;;;;;;;5055385;28;19959;-78
2022/08/11 01:47:49;;;;;;;;;;;;;;;;;;5037547;28;19913;-79
2022/08/11 01:50:14;;;;;;;;;;;;;;;;;;5054937;28;19913;-78
2022/08/11 01:52:39;;;;;;;;;;;;;;;;;;5036659;28;19924;-79
2022/08/11 01:55:05;;;;;;;;;;;;;;;;;;5054909;28;19919;-78
2022/08/11 01:57:30;;;;;;;;;;;;;;;;;;5036418;28;19935;-78
2022/08/11 01:59:55;;;;;;;;;;;;;;;;;;5053945;28;19913;-79
2022/08/11 02:02:20;;;;;;;;;;;;;;;;;;5055014;28;19971;-78
2022/08/11 02:04:45;;;;;;;;;;;;;;;;;;5051553;28;19921;-79
2022/08/11 02:07:10;;;;;;;;;;;;;;;;;;5054430;28;20303;-79
2022/08/11 02:09:35;;;;;;;;;;;;;;;;;;5054489;28;19966;-79
2022/08/11 02:12:00;;;;;;;;;;;;;;;;;;5036255;28;19912;-78
2022/08/11 02:14:26;;;;;;;;;;;;;;;;;;5035583;28;20360;-79
2022/08/11 02:16:53;;;;;;;;;;;;;;;;;;5054385;28;20261;-79
2022/08/11 02:24:46;;;;;;;;;;;;;;;;;;5053182;28;20046;-79
2022/08/11 02:27:12;;;;;;;;;;;;;;;;;;5043186;28;20389;-79
2022/08/11 02:29:37;;;;;;;;;;;;;;;;;;5020205;28;19928;-79
2022/08/11 02:34:45;;;;;;;;;;;;;;;;;;5037452;28;19962;-79
2022/08/11 02:37:14;;;;;;;;;;;;;;;;;;5041465;28;19931;-78
2022/08/11 02:39:39;;;;;;;;;;;;;;;;;;5036074;28;19909;-79
2022/08/11 02:42:23;;;;;;;;;;;;;;;;;;5053598;28;19913;-78
2022/08/11 02:44:48;;;;;;;;;;;;;;;;;;5049969;28;19921;-79
2022/08/11 02:47:13;;;;;;;;;;;;;;;;;;5035613;28;19912;-79
2022/08/11 02:49:54;;;;;;;;;;;;;;;;;;5054081;28;19915;-86
2022/08/11 02:52:19;;;;;;;;;;;;;;;;;;5052340;28;20014;-76
2022/08/11 02:54:44;;;;;;;;;;;;;;;;;;5036182;28;20382;-76
2022/08/11 02:57:09;;;;;;;;;;;;;;;;;;5051624;28;19916;-76
2022/08/11 02:59:49;;;;;;;;;;;;;;;;;;5022982;28;19913;-76
2022/08/11 03:02:15;;;;;;;;;;;;;;;;;;5033858;28;20371;-80
2022/08/11 03:04:43;;;;;;;;;;;;;;;;;;5068678;28;19928;-75
2022/08/11 03:07:08;;;;;;;;;;;;;;;;;;5070256;28;19920;-75
2022/08/11 03:09:34;;;;;;;;;;;;;;;;;;5073982;28;19908;-75
2022/08/11 03:17:27;;;;;;;;;;;;;;;;;;5070978;28;20283;-75
2022/08/11 03:19:52;;;;;;;;;;;;;;;;;;5073467;28;20286;-75
2022/08/11 03:22:17;;;;;;;;;;;;;;;;;;5072505;28;20283;-75
2022/08/11 03:24:42;;;;;;;;;;;;;;;;;;5072499;28;19916;-75
2022/08/11 03:27:09;;;;;;;;;;;;;;;;;;5070439;28;20584;-74
2022/08/11 03:29:35;;;;;;;;;;;;;;;;;;5071654;28;19917;-75
2022/08/11 03:32:00;;;;;;;;;;;;;;;;;;5071847;28;19913;-75
2022/08/11 03:34:25;;;;;;;;;;;;;;;;;;5073602;28;20359;-75
2022/08/11 03:36:51;;;;;;;;;;;;;;;;;;5071028;28;19963;-75
2022/08/11 03:39:16;;;;;;;;;;;;;;;;;;5068407;28;20354;-75
2022/08/11 03:41:44;;;;;;;;;;;;;;;;;;5071020;28;19912;-75
2022/08/11 03:44:09;;;;;;;;;;;;;;;;;;5073265;28;19940;-74
2022/08/11 03:46:35;;;;;;;;;;;;;;;;;;5072360;28;19951;-75
2022/08/11 03:49:00;;;;;;;;;;;;;;;;;;5069593;28;19913;-75
2022/08/11 03:51:25;;;;;;;;;;;;;;;;;;5067011;28;19913;-75
2022/08/11 03:53:50;;;;;;;;;;;;;;;;;;5073086;28;19915;-75
2022/08/11 03:56:17;;;;;;;;;;;;;;;;;;5071013;28;19913;-75
2022/08/11 03:58:44;;;;;;;;;;;;;;;;;;5068645;28;19923;-75
2022/08/11 04:01:10;;;;;;;;;;;;;;;;;;5071155;28;20290;-75
2022/08/11 04:03:35;;;;;;;;;;;;;;;;;;5071098;28;20023;-75
2022/08/11 04:06:01;;;;;;;;;;;;;;;;;;5072562;28;19912;-80
2022/08/11 04:08:26;;;;;;;;;;;;;;;;;;5060227;28;19919;-80
2022/08/11 04:10:51;;;;;;;;;;;;;;;;;;5068966;28;19912;-80
2022/08/11 04:13:16;;;;;;;;;;;;;;;;;;5071014;28;19905;-81
2022/08/11 04:16:01;;;;;;;;;;;;;;;;;;5072692;28;19909;-79
2022/08/11 04:18:26;;;;;;;;;;;;;;;;;;5072622;28;19916;-80
2022/08/11 04:20:51;;;;;;;;;;;;;;;;;;5071961;28;20003;-80
2022/08/11 04:23:16;;;;;;;;;;;;;;;;;;5074810;28;19912;-80
2022/08/11 04:25:42;;;;;;;;;;;;;;;;;;5072750;28;19908;-81
2022/08/11 04:28:07;;;;;;;;;;;;;;;;;;5070526;28;19971;-80
2022/08/11 04:30:32;;;;;;;;;;;;;;;;;;5070540;28;19912;-80
2022/08/11 04:32:57;;;;;;;;;;;;;;;;;;5071701;28;19963;-79
2022/08/11 04:35:23;;;;;;;;;;;;;;;;;;5071916;28;19912;-80
2022/08/11 04:37:48;;;;;;;;;;;;;;;;;;5072599;28;19917;-80
2022/08/11 04:40:13;;;;;;;;;;;;;;;;;;5067296;28;19916;-80
2022/08/11 04:45:22;;;;;;;;;;;;;;;;;;5067552;28;19966;-81
2022/08/11 05:01:42;;;;;;;;;;;;;;;;;;5063459;28;19970;-75
2022/08/11 05:05:29;;;;;;;;;;;;;;;;;;5061552;28;20337;-75
2022/08/11 05:06:52;;;;;;;;;;;;;;;;;;5054730;28;20326;-75
2022/08/11 05:09:17;;;;;;;;;;;;;;;;;;5055857;28;19935;-75
2022/08/11 05:11:43;;;;;;;;;;;;;;;;;;5052844;28;20333;-75
2022/08/11 05:36:00;;;;;;;;;;;;;;;;;;5055189;28;20275;-76
2022/08/11 05:57:33;;;;;;;;;;;;;;;;;;5035011;28;19920;-74
2022/08/11 05:59:58;;;;;;;;;;;;;;;;;;5035827;28;19913;-75
2022/08/11 06:02:23;;;;;;;;;;;;;;;;;;5054971;28;19944;-76
2022/08/11 06:04:48;;;;;;;;;;;;;;;;;;5068752;28;20345;-77
2022/08/11 06:07:16;;;;;;;;;;;;;;;;;;5073947;28;19913;-77
2022/08/11 06:09:41;;;;;;;;;;;;;;;;;;5073632;28;19924;-76
2022/08/11 06:12:07;;;;;;;;;;;;;;;;;;5074068;28;19916;-76
2022/08/11 06:14:32;;;;;;;;;;;;;;;;;;5071150;28;19920;-75
2022/08/11 06:17:00;;;;;;;;;;;;;;;;;;5074860;28;19962;-75
2022/08/11 06:19:25;;;;;;;;;;;;;;;;;;5074953;28;20378;-76
2022/08/11 06:21:52;;;;;;;;;;;;;;;;;;5085556;28;20302;-75
2022/08/11 06:24:17;;;;;;;;;;;;;;;;;;5092308;28;19908;-76
2022/08/11 06:26:42;;;;;;;;;;;;;;;;;;5073422;28;19908;-76
2022/08/11 06:29:07;;;;;;;;;;;;;;;;;;5073482;28;19948;-75
2022/08/11 06:31:32;;;;;;;;;;;;;;;;;;5074541;28;19913;-75
2022/08/11 06:33:59;;;;;;;;;;;;;;;;;;5074686;28;19917;-76
2022/08/11 06:36:25;;;;;;;;;;;;;;;;;;5071767;28;19912;-76
2022/08/11 06:38:50;;;;;;;;;;;;;;;;;;5074347;28;19919;-76
2022/08/11 06:41:30;;;;;;;;;;;;;;;;;;5074114;28;20363;-76
2022/08/11 06:43:55;;;;;;;;;;;;;;;;;;5074731;28;19909;-76
2022/08/11 06:46:21;;;;;;;;;;;;;;;;;;5071637;28;19919;-76
2022/08/11 06:48:47;;;;;;;;;;;;;;;;;;5074614;28;19908;-76
2022/08/11 06:51:12;;;;;;;;;;;;;;;;;;5071639;28;20430;-76
2022/08/11 06:53:37;;;;;;;;;;;;;;;;;;5074377;28;19912;-76
2022/08/11 07:01:30;;;;;;;;;;;;;;;;;;5068374;28;19924;-76
2022/08/11 07:03:57;;;;;;;;;;;;;;;;;;5046022;28;19924;-76
2022/08/11 07:06:22;;;;;;;;;;;;;;;;;;5046646;28;20363;-74
2022/08/11 07:16:59;;;;;;;;;;;;;;;;;;5052825;28;19928;-75
2022/08/11 07:30:19;;;;;;;;;;;;;;;;;;5053674;28;19923;-75
2022/08/11 07:32:45;;;;;;;;;;;;;;;;;;5046312;28;19913;-76
2022/08/11 07:35:12;;;;;;;;;;;;;;;;;;5040141;28;19995;-76
2022/08/11 07:37:38;;;;;;;;;;;;;;;;;;5048424;28;19921;-75
2022/08/11 07:40:03;;;;;;;;;;;;;;;;;;5052771;28;20415;-76
2022/08/11 07:42:28;;;;;;;;;;;;;;;;;;5052261;28;19989;-76
2022/08/11 07:53:06;;;;;;;;;;;;;;;;;;5046503;28;19924;-76
2022/08/11 07:55:33;;;;;;;;;;;;;;;;;;5044744;28;19913;-75
2022/08/11 08:19:50;;;;;;;;;;;;;;;;;;5051724;28;19962;-76
2022/08/11 08:22:15;;;;;;;;;;;;;;;;;;5039956;28;19917;-76
2022/08/11 08:24:40;;;;;;;;;;;;;;;;;;5052520;28;19912;-76
2022/08/11 08:27:05;;;;;;;;;;;;;;;;;;5033844;28;19913;-76
2022/08/11 08:32:15;;;;;;;;;;;;;;;;;;5045992;28;19920;-75
2022/08/11 08:34:40;;;;;;;;;;;;;;;;;;5027343;28;19916;-75
2022/08/11 08:37:06;;;;;;;;;;;;;;;;;;5044363;28;19928;-75
2022/08/11 08:39:36;;;;;;;;;;;;;;;;;;5025549;28;19976;-75
2022/08/11 08:42:01;;;;;;;;;;;;;;;;;;5041826;28;19962;-75
2022/08/11 08:44:26;;;;;;;;;;;;;;;;;;5042465;28;19913;-75
2022/08/11 08:46:52;;;;;;;;;;;;;;;;;;5026902;28;19928;-75
2022/08/11 08:49:17;;;;;;;;;;;;;;;;;;5026172;28;19931;-75
2022/08/11 08:51:42;;;;;;;;;;;;;;;;;;5024427;28;20475;-75
2022/08/11 08:54:07;;;;;;;;;;;;;;;;;;5043359;28;19917;-75
2022/08/11 08:56:33;;;;;;;;;;;;;;;;;;5027893;28;19913;-75
2022/08/11 08:58:58;;;;;;;;;;;;;;;;;;5026920;28;19967;-75
2022/08/11 09:01:24;;;;;;;;;;;;;;;;;;5042627;28;19912;-74
2022/08/11 09:03:49;;;;;;;;;;;;;;;;;;5045932;28;20488;-75
2022/08/11 09:06:15;;;;;;;;;;;;;;;;;;5066200;28;19917;-77
2022/08/11 09:08:41;;;;;;;;;;;;;;;;;;5059537;28;19912;-75
2022/08/11 09:13:50;;;;;;;;;;;;;;;;;;5064234;28;20373;-75
2022/08/11 09:16:15;;;;;;;;;;;;;;;;;;5064499;28;20371;-76
2022/08/11 09:18:40;;;;;;;;;;;;;;;;;;5064391;28;19924;-75
2022/08/11 09:21:05;;;;;;;;;;;;;;;;;;5061355;28;19916;-75
2022/08/11 09:28:58;;;;;;;;;;;;;;;;;;5064011;28;20379;-75
2022/08/11 09:31:25;;;;;;;;;;;;;;;;;;5067311;28;19995;-76
2022/08/11 09:33:50;;;;;;;;;;;;;;;;;;5068968;28;19939;-75
2022/08/11 09:41:43;;;;;;;;;;;;;;;;;;5064581;28;20342;-75
2022/08/11 09:46:52;;;;;;;;;;;;;;;;;;5066203;28;20394;-75
2022/08/11 09:49:17;;;;;;;;;;;;;;;;;;5068831;28;19951;-75
2022/08/11 09:51:43;;;;;;;;;;;;;;;;;;5066027;28;19916;-77
2022/08/11 09:54:08;;;;;;;;;;;;;;;;;;5066155;28;20003;-76
2022/08/11 09:59:17;;;;;;;;;;;;;;;;;;5064861;28;20366;-76
2022/08/11 10:01:42;;;;;;;;;;;;;;;;;;5069742;28;19912;-74
2022/08/11 10:04:07;;;;;;;;;;;;;;;;;;5054100;28;20306;-75
2022/08/11 10:09:16;;;;;;;;;;;;;;;;;;5046414;28;20031;-75
2022/08/11 10:11:41;;;;;;;;;;;;;;;;;;5044617;28;20365;-75
2022/08/11 10:16:50;;;;;;;;;;;;;;;;;;5045067;28;19927;-74
2022/08/11 10:19:17;;;;;;;;;;;;;;;;;;5044949;28;19917;-72
2022/08/11 10:21:43;;;;;;;;;;;;;;;;;;5026285;28;20047;-74
2022/08/11 10:26:59;;;;;;;;;;;;;;;;;;4965608;28;19946;-73
2022/08/11 10:34:51;;;;;;;;;;;;;;;;;;4964167;28;20082;-74
2022/08/11 10:37:17;;;;;;;;;;;;;;;;;;4965511;28;19995;-74
2022/08/11 10:39:42;;;;;;;;;;;;;;;;;;4966545;28;20410;-75
2022/08/11 10:44:51;;;;;;;;;;;;;;;;;;4965210;28;20012;-74
2022/08/11 10:47:34;;;;;;;;;;;;;;;;;;4968704;28;19972;-75
2022/08/11 11:00:57;;;;;;;;;;;;;;;;;;4965974;28;19933;-75
2022/08/11 11:03:22;;;;;;;;;;;;;;;;;;4993192;28;19931;-75
2022/08/11 11:05:47;;;;;;;;;;;;;;;;;;5064205;28;20328;-75
2022/08/11 11:10:57;;;;;;;;;;;;;;;;;;5064982;28;19975;-74
2022/08/11 11:18:50;;;;;;;;;;;;;;;;;;5064250;28;19938;-74
2022/08/11 11:21:15;;;;;;;;;;;;;;;;;;5062426;28;20332;-75
2022/08/11 11:23:40;;;;;;;;;;;;;;;;;;5062422;28;19982;-74
2022/08/11 11:26:05;;;;;;;;;;;;;;;;;;5063013;28;19912;-75
2022/08/11 11:28:30;;;;;;;;;;;;;;;;;;5061816;28;20278;-74
2022/08/11 11:30:55;;;;;;;;;;;;;;;;;;5063028;28;19948;-76
2022/08/11 11:33:21;;;;;;;;;;;;;;;;;;5058968;28;19926;-74
2022/08/11 11:35:46;;;;;;;;;;;;;;;;;;5062930;28;20426;-74
2022/08/11 11:38:11;;;;;;;;;;;;;;;;;;5064089;28;19924;-75
2022/08/11 11:40:36;;;;;;;;;;;;;;;;;;5059750;28;19958;-77
2022/08/11 11:43:01;;;;;;;;;;;;;;;;;;5059201;28;20038;-75
2022/08/11 11:45:26;;;;;;;;;;;;;;;;;;5064678;28;21374;-75
2022/08/11 11:47:52;;;;;;;;;;;;;;;;;;5060328;28;19927;-75
2022/08/11 11:50:18;;;;;;;;;;;;;;;;;;5060019;28;19916;-75
2022/08/11 11:52:43;;;;;;;;;;;;;;;;;;5061027;28;20772;-75
2022/08/11 11:55:08;;;;;;;;;;;;;;;;;;5066412;28;19952;-74
2022/08/11 12:03:01;;;;;;;;;;;;;;;;;;5056345;28;19967;-74
2022/08/11 12:05:26;;;;;;;;;;;;;;;;;;5023383;28;19952;-74
2022/08/11 12:08:14;;;;;;;;;;;;;;;;;;5039977;28;20444;-74
2022/08/11 12:10:37;;;;;;;;;;;;;;;;;;5040297;28;19925;-75
2022/08/11 12:15:46;;;;;;;;;;;;;;;;;;5044857;28;20432;-74
2022/08/11 12:18:11;;;;;;;;;;;;;;;;;;5051011;28;19917;-75
2022/08/11 12:20:36;;;;;;;;;;;;;;;;;;5026113;28;19913;-75
2022/08/11 12:28:29;;;;;;;;;;;;;;;;;;5049655;28;19919;-75
2022/08/11 12:30:55;;;;;;;;;;;;;;;;;;5043847;28;19913;-76
2022/08/11 12:33:20;;;;;;;;;;;;;;;;;;5047578;28;19939;-75
2022/08/11 12:35:45;;;;;;;;;;;;;;;;;;5050856;28;19947;-75
2022/08/11 12:38:11;;;;;;;;;;;;;;;;;;5051816;28;19959;-75
2022/08/11 12:46:04;;;;;;;;;;;;;;;;;;5043212;28;19916;-75
2022/08/11 12:53:57;;;;;;;;;;;;;;;;;;5043676;28;20310;-75
2022/08/11 13:04:55;;;;;;;;;;;;;;;;;;5045368;28;20457;-75
2022/08/11 13:07:20;;;;;;;;;;;;;;;;;;5023911;28;19921;-76
2022/08/11 13:09:45;;;;;;;;;;;;;;;;;;5014610;28;20299;-76
2022/08/11 13:14:54;;;;;;;;;;;;;;;;;;5037785;28;19954;-75
2022/08/11 13:17:23;;;;;;;;;;;;;;;;;;5025774;28;19916;-75
2022/08/11 13:19:48;;;;;;;;;;;;;;;;;;5028131;28;19917;-76
2022/08/11 13:22:13;;;;;;;;;;;;;;;;;;5027966;28;19917;-75
2022/08/11 13:24:38;;;;;;;;;;;;;;;;;;5030714;28;19913;-75
2022/08/11 13:27:03;;;;;;;;;;;;;;;;;;5045509;28;19927;-75
2022/08/11 13:29:29;;;;;;;;;;;;;;;;;;5053693;28;19915;-76
2022/08/11 13:31:54;;;;;;;;;;;;;;;;;;5051495;28;19921;-76
2022/08/11 13:34:19;;;;;;;;;;;;;;;;;;5036612;28;19995;-75
2022/08/11 13:36:45;;;;;;;;;;;;;;;;;;5035029;28;20283;-75
2022/08/11 13:39:10;;;;;;;;;;;;;;;;;;5051748;28;19964;-75
2022/08/11 13:41:38;;;;;;;;;;;;;;;;;;5052793;28;20272;-75
2022/08/11 13:44:03;;;;;;;;;;;;;;;;;;5036557;28;20498;-75
2022/08/11 13:46:28;;;;;;;;;;;;;;;;;;5052973;28;20395;-75
2022/08/11 13:48:53;;;;;;;;;;;;;;;;;;5053322;28;19916;-75
2022/08/11 13:51:34;;;;;;;;;;;;;;;;;;5032900;28;19921;-75
2022/08/11 13:53:59;;;;;;;;;;;;;;;;;;5054109;28;20011;-75
2022/08/11 13:56:24;;;;;;;;;;;;;;;;;;5041437;28;20039;-75
2022/08/11 13:58:49;;;;;;;;;;;;;;;;;;5050837;28;19917;-75
2022/08/11 14:01:14;;;;;;;;;;;;;;;;;;5035475;28;20364;-75
2022/08/11 14:03:40;;;;;;;;;;;;;;;;;;5052096;28;20439;-75
2022/08/11 14:06:05;;;;;;;;;;;;;;;;;;5072674;28;19919;-75
2022/08/11 14:08:31;;;;;;;;;;;;;;;;;;5070001;28;20090;-75
2022/08/11 14:13:40;;;;;;;;;;;;;;;;;;5073309;28;19923;-75
2022/08/11 14:16:06;;;;;;;;;;;;;;;;;;5072447;28;19913;-75
2022/08/11 14:18:31;;;;;;;;;;;;;;;;;;5071854;28;19970;-74
2022/08/11 14:23:40;;;;;;;;;;;;;;;;;;5065705;28;19919;-74
2022/08/11 14:26:25;;;;;;;;;;;;;;;;;;5072299;28;19912;-74
2022/08/11 14:28:52;;;;;;;;;;;;;;;;;;5064600;28;20298;-74
2022/08/11 14:31:17;;;;;;;;;;;;;;;;;;5064181;28;19978;-74
2022/08/11 14:33:42;;;;;;;;;;;;;;;;;;5067413;28;20452;-74
2022/08/11 14:36:07;;;;;;;;;;;;;;;;;;5070455;28;19908;-74
2022/08/11 14:38:32;;;;;;;;;;;;;;;;;;5068958;28;20355;-74
2022/08/11 14:49:09;;;;;;;;;;;;;;;;;;5070715;28;19946;-75
2022/08/11 14:51:34;;;;;;;;;;;;;;;;;;5063289;28;19954;-74
2022/08/11 14:56:43;;;;;;;;;;;;;;;;;;5067984;28;20029;-74
2022/08/11 14:59:09;;;;;;;;;;;;;;;;;;5069171;28;19920;-75
2022/08/11 15:04:18;;;;;;;;;;;;;;;;;;5049674;28;19949;-74
2022/08/11 15:06:44;;;;;;;;;;;;;;;;;;5039294;28;20371;-75
2022/08/11 15:09:09;;;;;;;;;;;;;;;;;;5022914;28;19940;-75
2022/08/11 15:17:06;;;;;;;;;;;;;;;;;;5040211;28;20390;-75
2022/08/11 15:17:09;;;;;;;;;;;;;;;;;;5050239;28;20283;-75
2022/08/11 15:19:34;;;;;;;;;;;;;;;;;;5049547;28;19917;-75
2022/08/11 15:24:43;;;;;;;;;;;;;;;;;;5044294;28;19962;-75
2022/08/11 15:38:04;;;;;;;;;;;;;;;;;;5047605;28;19924;-75
2022/08/11 15:46:01;;;;;;;;;;;;;;;;;;5044263;28;20299;-74
2022/08/11 15:48:26;;;;;;;;;;;;;;;;;;5043790;28;19978;-75
2022/08/11 15:50:52;;;;;;;;;;;;;;;;;;5027161;28;19924;-75
2022/08/11 15:53:17;;;;;;;;;;;;;;;;;;5027586;28;19995;-75
2022/08/11 15:55:42;;;;;;;;;;;;;;;;;;5050368;28;19916;-75
2022/08/11 16:04:10;;;;;;;;;;;;;;;;;;4993648;28;20013;-74
2022/08/11 16:06:35;;;;;;;;;;;;;;;;;;4992809;28;20336;-74
2022/08/11 16:09:04;;;;;;;;;;;;;;;;;;4994644;28;20004;-74
2022/08/11 16:11:29;;;;;;;;;;;;;;;;;;5009088;28;20017;-75
2022/08/11 16:16:38;;;;;;;;;;;;;;;;;;5007713;28;20423;-74
2022/08/11 16:19:04;;;;;;;;;;;;;;;;;;4997443;28;19964;-75
2022/08/11 16:21:29;;;;;;;;;;;;;;;;;;5004970;28;19959;-74
2022/08/11 16:23:54;;;;;;;;;;;;;;;;;;5009314;28;19917;-76
2022/08/11 16:26:21;;;;;;;;;;;;;;;;;;4991499;28;19940;-75
2022/08/11 16:28:46;;;;;;;;;;;;;;;;;;4992145;28;19917;-75
2022/08/11 16:31:12;;;;;;;;;;;;;;;;;;5003897;28;19923;-75
2022/08/11 16:33:38;;;;;;;;;;;;;;;;;;5071057;28;19912;-76
2022/08/11 16:38:47;;;;;;;;;;;;;;;;;;5059494;28;20005;-75
2022/08/11 16:41:13;;;;;;;;;;;;;;;;;;5070436;28;19951;-76
2022/08/11 16:49:06;;;;;;;;;;;;;;;;;;5069929;28;19939;-76
2022/08/11 16:51:31;;;;;;;;;;;;;;;;;;5062243;28;20359;-76
2022/08/11 16:53:56;;;;;;;;;;;;;;;;;;5071190;28;19919;-76
2022/08/11 16:56:21;;;;;;;;;;;;;;;;;;5069351;28;19915;-75
2022/08/11 17:01:30;;;;;;;;;;;;;;;;;;5065911;28;20372;-76
2022/08/11 17:14:51;;;;;;;;;;;;;;;;;;5037409;28;19916;-77
2022/08/11 17:17:16;;;;;;;;;;;;;;;;;;5038834;28;20439;-76
2022/08/11 17:19:41;;;;;;;;;;;;;;;;;;5019618;28;19928;-77
2022/08/11 17:24:50;;;;;;;;;;;;;;;;;;5038246;28;20039;-76
2022/08/11 17:27:15;;;;;;;;;;;;;;;;;;5018913;28;20081;-76
2022/08/11 17:29:40;;;;;;;;;;;;;;;;;;5020901;28;19920;-76
2022/08/11 17:37:33;;;;;;;;;;;;;;;;;;5042699;28;20023;-75
2022/08/11 17:39:58;;;;;;;;;;;;;;;;;;5043339;28;20008;-76
2022/08/11 17:50:35;;;;;;;;;;;;;;;;;;5043168;28;19924;-75
2022/08/11 18:01:12;;;;;;;;;;;;;;;;;;5042906;28;20479;-76
2022/08/11 18:03:40;;;;;;;;;;;;;;;;;;5044480;28;19921;-76
2022/08/11 18:06:05;;;;;;;;;;;;;;;;;;5067922;28;19916;-75
